Terminal Aerodrome Forecast
Issued by NWS La Crosse, WI

Home | Current Version | Previous Version | Text Only | Print | Product List | Glossary On
Versions: 1 2 3 4 5 6 7 8 9 10 11 12 13 14 15 16 17 18 19 20 21 22 23
000
FTUS43 KARX 310158 AAA
TAFRST
TAF AMD
KRST 310158Z 3102/3124 11004KT P6SM FEW040
      TEMPO 3102/3103 5SM SHRA BKN035
     FM311000 14004KT 4SM BR SKC
     FM311300 14007KT P6SM FEW040=

USA.gov is the U.S. government's official web portal to all federal, state and local government web resources and services.